sensor_id;sensor_type;location;lat;lon;timestamp;pressure;altitude;pressure_sealevel;temperature;humidity
31121;BME280;17770;45.966;13.632;2023-02-02T00:01:30;100939.59;;;12.90;60.06
31121;BME280;17770;45.966;13.632;2023-02-02T00:03:56;100941.34;;;12.90;59.95
31121;BME280;17770;45.966;13.632;2023-02-02T00:06:23;100927.53;;;12.89;59.61
31121;BME280;17770;45.966;13.632;2023-02-02T00:08:49;100930.97;;;12.90;59.89
31121;BME280;17770;45.966;13.632;2023-02-02T00:11:16;100932.66;;;12.91;59.51
31121;BME280;17770;45.966;13.632;2023-02-02T00:13:42;100934.44;;;12.90;59.73
31121;BME280;17770;45.966;13.632;2023-02-02T00:18:53;100929.25;;;12.90;59.88
31121;BME280;17770;45.966;13.632;2023-02-02T00:21:19;100919.78;;;12.89;60.04
31121;BME280;17770;45.966;13.632;2023-02-02T00:23:45;100931.88;;;12.89;60.39
31121;BME280;17770;45.966;13.632;2023-02-02T00:26:10;100925.81;;;12.90;59.82
31121;BME280;17770;45.966;13.632;2023-02-02T00:28:36;100925.81;;;12.90;59.61
31121;BME280;17770;45.966;13.632;2023-02-02T00:31:02;100924.94;;;12.89;59.66
31121;BME280;17770;45.966;13.632;2023-02-02T00:33:28;100930.13;;;12.89;59.90
31121;BME280;17770;45.966;13.632;2023-02-02T00:35:54;100926.72;;;12.89;59.53
31121;BME280;17770;45.966;13.632;2023-02-02T00:38:20;100926.66;;;12.90;59.56
31121;BME280;17770;45.966;13.632;2023-02-02T00:40:46;100925.81;;;12.90;59.59
31121;BME280;17770;45.966;13.632;2023-02-02T00:43:12;100925.84;;;12.88;59.67
31121;BME280;17770;45.966;13.632;2023-02-02T00:45:38;100930.97;;;12.90;59.91
31121;BME280;17770;45.966;13.632;2023-02-02T00:48:04;100931.88;;;12.89;59.59
31121;BME280;17770;45.966;13.632;2023-02-02T00:50:30;100931.03;;;12.88;59.79
31121;BME280;17770;45.966;13.632;2023-02-02T00:52:56;100925.81;;;12.90;59.95
31121;BME280;17770;45.966;13.632;2023-02-02T00:55:25;100928.41;;;12.90;60.02
31121;BME280;17770;45.966;13.632;2023-02-02T00:57:52;100925.00;;;12.88;59.85
31121;BME280;17770;45.966;13.632;2023-02-02T01:00:21;100927.53;;;12.89;59.50
31121;BME280;17770;45.966;13.632;2023-02-02T01:02:51;100937.09;;;12.87;60.02
31121;BME280;17770;45.966;13.632;2023-02-02T01:05:18;100927.59;;;12.88;59.56
31121;BME280;17770;45.966;13.632;2023-02-02T01:07:44;100927.59;;;12.88;59.47
31121;BME280;17770;45.966;13.632;2023-02-02T01:10:12;100934.50;;;12.87;60.25
31121;BME280;17770;45.966;13.632;2023-02-02T01:12:39;100939.66;;;12.87;60.44
31121;BME280;17770;45.966;13.632;2023-02-02T01:15:05;100954.31;;;12.88;60.22
31121;BME280;17770;45.966;13.632;2023-02-02T01:17:31;100946.59;;;12.87;60.18
31121;BME280;17770;45.966;13.632;2023-02-02T01:19:58;100944.84;;;12.87;60.10
31121;BME280;17770;45.966;13.632;2023-02-02T01:22:23;100944.84;;;12.87;59.79
31121;BME280;17770;45.966;13.632;2023-02-02T01:24:49;100934.50;;;12.87;60.33
31121;BME280;17770;45.966;13.632;2023-02-02T01:27:15;100938.03;;;12.85;59.57
31121;BME280;17770;45.966;13.632;2023-02-02T01:29:41;100944.91;;;12.86;59.54
31121;BME280;17770;45.966;13.632;2023-02-02T01:32:07;100949.19;;;12.87;59.75
31121;BME280;17770;45.966;13.632;2023-02-02T01:34:33;100950.06;;;12.86;60.07
31121;BME280;17770;45.966;13.632;2023-02-02T01:36:59;100939.72;;;12.86;59.76
31121;BME280;17770;45.966;13.632;2023-02-02T01:39:25;100932.81;;;12.86;60.50
31121;BME280;17770;45.966;13.632;2023-02-02T01:41:51;100924.19;;;12.86;59.46
31121;BME280;17770;45.966;13.632;2023-02-02T01:47:01;100950.13;;;12.84;60.28
31121;BME280;17770;45.966;13.632;2023-02-02T01:49:28;100943.22;;;12.85;59.73
31121;BME280;17770;45.966;13.632;2023-02-02T01:51:55;100935.50;;;12.83;60.59
31121;BME280;17770;45.966;13.632;2023-02-02T01:54:26;100939.75;;;12.84;59.92
31121;BME280;17770;45.966;13.632;2023-02-02T01:56:54;100933.75;;;12.84;59.85
31121;BME280;17770;45.966;13.632;2023-02-02T01:59:22;100938.94;;;12.84;60.09
31121;BME280;17770;45.966;13.632;2023-02-02T02:01:48;100943.22;;;12.85;59.96
31121;BME280;17770;45.966;13.632;2023-02-02T02:04:16;100938.09;;;12.83;60.08
31121;BME280;17770;45.966;13.632;2023-02-02T02:06:43;100935.50;;;12.83;60.42
31121;BME280;17770;45.966;13.632;2023-02-02T02:09:10;100940.66;;;12.83;60.49
31121;BME280;17770;45.966;13.632;2023-02-02T02:11:37;100932.94;;;12.82;60.35
31121;BME280;17770;45.966;13.632;2023-02-02T02:14:04;100935.53;;;12.82;59.25
31121;BME280;17770;45.966;13.632;2023-02-02T02:28:04;100959.72;;;12.81;59.61
31121;BME280;17770;45.966;13.632;2023-02-02T02:38:39;100952.00;;;12.79;60.29
31121;BME280;17770;45.966;13.632;2023-02-02T02:41:15;100943.41;;;12.79;60.28
31121;BME280;17770;45.966;13.632;2023-02-02T02:44:07;100939.06;;;12.79;60.05
31121;BME280;17770;45.966;13.632;2023-02-02T02:46:34;100919.25;;;12.78;60.25
31121;BME280;17770;45.966;13.632;2023-02-02T02:49:01;100916.66;;;12.78;59.29
31121;BME280;17770;45.966;13.632;2023-02-02T02:51:37;100926.97;;;12.80;59.89
31121;BME280;17770;45.966;13.632;2023-02-02T02:54:04;100930.50;;;12.77;59.79
31121;BME280;17770;45.966;13.632;2023-02-02T02:56:32;100927.91;;;12.77;59.77
31121;BME280;17770;45.966;13.632;2023-02-02T02:59:08;100930.47;;;12.79;59.80
31121;BME280;17770;45.966;13.632;2023-02-02T03:01:36;100920.16;;;12.77;59.88
31121;BME280;17770;45.966;13.632;2023-02-02T03:09:09;100924.47;;;12.77;59.68
31121;BME280;17770;45.966;13.632;2023-02-02T03:11:36;100905.50;;;12.76;59.98
31121;BME280;17770;45.966;13.632;2023-02-02T03:14:02;100910.69;;;12.76;59.33
31121;BME280;17770;45.966;13.632;2023-02-02T03:16:28;100917.56;;;12.77;60.14
31121;BME280;17770;45.966;13.632;2023-02-02T03:18:54;100907.22;;;12.76;59.71
31121;BME280;17770;45.966;13.632;2023-02-02T03:21:21;100919.34;;;12.75;59.98
31121;BME280;17770;45.966;13.632;2023-02-02T03:23:47;100916.75;;;12.75;59.37
31121;BME280;17770;45.966;13.632;2023-02-02T03:26:13;100936.66;;;12.73;59.45
31121;BME280;17770;45.966;13.632;2023-02-02T03:28:39;100935.78;;;12.73;59.29
31121;BME280;17770;45.966;13.632;2023-02-02T03:31:05;100929.75;;;12.74;59.53
31121;BME280;17770;45.966;13.632;2023-02-02T03:33:31;100938.38;;;12.73;59.76
31121;BME280;17770;45.966;13.632;2023-02-02T03:35:59;100934.13;;;12.72;60.20
31121;BME280;17770;45.966;13.632;2023-02-02T03:38:25;100940.16;;;12.72;59.86
31121;BME280;17770;45.966;13.632;2023-02-02T03:40:51;100920.28;;;12.73;59.82
31121;BME280;17770;45.966;13.632;2023-02-02T03:43:21;100922.84;;;12.73;59.41
31121;BME280;17770;45.966;13.632;2023-02-02T03:45:47;100942.72;;;12.72;59.85
31121;BME280;17770;45.966;13.632;2023-02-02T03:48:13;100935.03;;;12.71;60.33
31121;BME280;17770;45.966;13.632;2023-02-02T03:50:38;100938.44;;;12.71;59.33
31121;BME280;17770;45.966;13.632;2023-02-02T03:53:04;100924.66;;;12.71;59.88
31121;BME280;17770;45.966;13.632;2023-02-02T03:55:30;100927.25;;;12.71;59.74
31121;BME280;17770;45.966;13.632;2023-02-02T03:57:56;100934.16;;;12.70;59.75
31121;BME280;17770;45.966;13.632;2023-02-02T04:00:22;100936.75;;;12.70;59.65
31121;BME280;17770;45.966;13.632;2023-02-02T04:02:48;100947.97;;;12.69;59.33
31121;BME280;17770;45.966;13.632;2023-02-02T04:05:14;100942.78;;;12.71;59.44
31121;BME280;17770;45.966;13.632;2023-02-02T04:07:40;100943.66;;;12.70;59.40
31121;BME280;17770;45.966;13.632;2023-02-02T04:10:06;100939.38;;;12.69;59.47
31121;BME280;17770;45.966;13.632;2023-02-02T04:12:32;100931.63;;;12.69;59.38
31121;BME280;17770;45.966;13.632;2023-02-02T04:14:58;100929.03;;;12.69;60.06
31121;BME280;17770;45.966;13.632;2023-02-02T04:17:23;100948.88;;;12.68;59.54
31121;BME280;17770;45.966;13.632;2023-02-02T04:19:49;100943.69;;;12.68;59.99
31121;BME280;17770;45.966;13.632;2023-02-02T04:22:21;100942.84;;;12.68;60.08
31121;BME280;17770;45.966;13.632;2023-02-02T04:24:47;100941.13;;;12.68;60.04
31121;BME280;17770;45.966;13.632;2023-02-02T04:27:13;100928.19;;;12.68;59.56
31121;BME280;17770;45.966;13.632;2023-02-02T04:29:38;100930.75;;;12.68;60.23
31121;BME280;17770;45.966;13.632;2023-02-02T04:32:04;100944.59;;;12.67;59.56
31121;BME280;17770;45.966;13.632;2023-02-02T04:34:30;100948.91;;;12.67;59.93
31121;BME280;17770;45.966;13.632;2023-02-02T04:36:56;100953.19;;;12.68;59.41
31121;BME280;17770;45.966;13.632;2023-02-02T04:39:22;100926.53;;;12.66;60.23
31121;BME280;17770;45.966;13.632;2023-02-02T04:41:48;100930.84;;;12.65;60.00
31121;BME280;17770;45.966;13.632;2023-02-02T04:44:14;100938.63;;;12.65;59.68
31121;BME280;17770;45.966;13.632;2023-02-02T04:46:41;100932.59;;;12.65;59.27
31121;BME280;17770;45.966;13.632;2023-02-02T04:49:07;100943.78;;;12.65;59.55
31121;BME280;17770;45.966;13.632;2023-02-02T04:51:34;100937.72;;;12.66;59.66
31121;BME280;17770;45.966;13.632;2023-02-02T04:53:59;100930.84;;;12.65;59.88
31121;BME280;17770;45.966;13.632;2023-02-02T04:56:25;100944.66;;;12.66;59.53
31121;BME280;17770;45.966;13.632;2023-02-02T04:58:53;100938.63;;;12.65;59.73
31121;BME280;17770;45.966;13.632;2023-02-02T05:01:20;100944.66;;;12.66;59.88
31121;BME280;17770;45.966;13.632;2023-02-02T05:03:47;100945.53;;;12.65;59.87
31121;BME280;17770;45.966;13.632;2023-02-02T05:06:14;100949.84;;;12.64;59.65
31121;BME280;17770;45.966;13.632;2023-02-02T05:08:40;100945.47;;;12.66;59.40
31121;BME280;17770;45.966;13.632;2023-02-02T05:11:08;100945.53;;;12.65;59.47
31121;BME280;17770;45.966;13.632;2023-02-02T05:13:34;100949.84;;;12.64;59.85
31121;BME280;17770;45.966;13.632;2023-02-02T05:16:01;100942.97;;;12.63;59.87
31121;BME280;17770;45.966;13.632;2023-02-02T05:18:27;100948.09;;;12.65;59.23
31121;BME280;17770;45.966;13.632;2023-02-02T05:20:53;100948.09;;;12.65;59.15
31121;BME280;17770;45.966;13.632;2023-02-02T05:23:19;100943.84;;;12.64;59.69
31121;BME280;17770;45.966;13.632;2023-02-02T05:25:51;100941.31;;;12.62;59.83
31121;BME280;17770;45.966;13.632;2023-02-02T05:28:18;100941.25;;;12.64;59.76
31121;BME280;17770;45.966;13.632;2023-02-02T05:30:44;100964.53;;;12.64;59.17
31121;BME280;17770;45.966;13.632;2023-02-02T05:33:10;100973.13;;;12.66;59.92
31121;BME280;17770;45.966;13.632;2023-02-02T05:35:36;100955.00;;;12.64;59.96
31121;BME280;17770;45.966;13.632;2023-02-02T05:38:02;100986.91;;;12.65;60.48
31121;BME280;17770;45.966;13.632;2023-02-02T05:40:28;100974.88;;;12.64;59.72
31121;BME280;17770;45.966;13.632;2023-02-02T05:42:54;100979.19;;;12.63;59.98
31121;BME280;17770;45.966;13.632;2023-02-02T05:45:20;100985.25;;;12.64;59.33
31121;BME280;17770;45.966;13.632;2023-02-02T05:47:46;100972.31;;;12.64;59.38
31121;BME280;17770;45.966;13.632;2023-02-02T05:50:12;100979.19;;;12.63;60.06
31121;BME280;17770;45.966;13.632;2023-02-02T05:52:38;100971.41;;;12.65;59.33
31121;BME280;17770;45.966;13.632;2023-02-02T05:55:05;100967.94;;;12.66;59.39
31121;BME280;17770;45.966;13.632;2023-02-02T05:57:31;100968.81;;;12.65;59.80
31121;BME280;17770;45.966;13.632;2023-02-02T05:59:57;100963.63;;;12.65;60.17
31121;BME280;17770;45.966;13.632;2023-02-02T06:02:23;100986.91;;;12.65;59.40
31121;BME280;17770;45.966;13.632;2023-02-02T06:04:49;100966.22;;;12.65;59.74
31121;BME280;17770;45.966;13.632;2023-02-02T06:07:15;100964.53;;;12.64;59.55
31121;BME280;17770;45.966;13.632;2023-02-02T06:09:40;100975.72;;;12.64;59.33
31121;BME280;17770;45.966;13.632;2023-02-02T06:12:06;100972.31;;;12.64;59.75
31121;BME280;17770;45.966;13.632;2023-02-02T06:14:33;100969.72;;;12.64;59.85
31121;BME280;17770;45.966;13.632;2023-02-02T06:16:59;100973.13;;;12.64;59.22
31121;BME280;17770;45.966;13.632;2023-02-02T06:19:24;100971.44;;;12.63;59.41
31121;BME280;17770;45.966;13.632;2023-02-02T06:21:50;100971.50;;;12.62;58.97
31121;BME280;17770;45.966;13.632;2023-02-02T06:24:16;100972.38;;;12.61;60.28
31121;BME280;17770;45.966;13.632;2023-02-02T06:26:42;100987.00;;;12.62;59.63
31121;BME280;17770;45.966;13.632;2023-02-02T06:29:11;100982.69;;;12.62;59.60
31121;BME280;17770;45.966;13.632;2023-02-02T06:31:37;100987.00;;;12.62;60.43
31121;BME280;17770;45.966;13.632;2023-02-02T06:34:03;100979.25;;;12.62;59.38
31121;BME280;17770;45.966;13.632;2023-02-02T06:36:29;100987.00;;;12.62;60.02
31121;BME280;17770;45.966;13.632;2023-02-02T06:38:55;100989.59;;;12.62;59.35
31121;BME280;17770;45.966;13.632;2023-02-02T06:41:22;100987.06;;;12.60;60.21
31121;BME280;17770;45.966;13.632;2023-02-02T06:43:48;100982.75;;;12.61;60.27
31121;BME280;17770;45.966;13.632;2023-02-02T06:46:14;101001.72;;;12.60;60.21
31121;BME280;17770;45.966;13.632;2023-02-02T06:48:41;101000.84;;;12.61;58.98
31121;BME280;17770;45.966;13.632;2023-02-02T06:51:07;101005.16;;;12.60;59.49
31121;BME280;17770;45.966;13.632;2023-02-02T06:53:33;101009.44;;;12.61;59.64
31121;BME280;17770;45.966;13.632;2023-02-02T06:56:00;101013.75;;;12.62;59.40
31121;BME280;17770;45.966;13.632;2023-02-02T06:58:26;101010.28;;;12.62;59.25
31121;BME280;17770;45.966;13.632;2023-02-02T07:00:53;101007.72;;;12.62;59.73
31121;BME280;17770;45.966;13.632;2023-02-02T07:03:19;101012.03;;;12.61;59.13
31121;BME280;17770;45.966;13.632;2023-02-02T07:05:47;101015.47;;;12.62;59.43
31121;BME280;17770;45.966;13.632;2023-02-02T07:08:12;101012.03;;;12.61;59.17
31121;BME280;17770;45.966;13.632;2023-02-02T07:10:38;101007.75;;;12.60;59.91
31121;BME280;17770;45.966;13.632;2023-02-02T07:13:04;101002.59;;;12.60;60.08
31121;BME280;17770;45.966;13.632;2023-02-02T07:15:36;101012.06;;;12.60;60.19
31121;BME280;17770;45.966;13.632;2023-02-02T07:18:02;101008.63;;;12.61;60.34
31121;BME280;17770;45.966;13.632;2023-02-02T07:20:28;101012.88;;;12.62;59.45
31121;BME280;17770;45.966;13.632;2023-02-02T07:22:54;101018.09;;;12.60;59.88
31121;BME280;17770;45.966;13.632;2023-02-02T07:25:20;101018.97;;;12.61;59.59
31121;BME280;17770;45.966;13.632;2023-02-02T07:27:46;101027.59;;;12.60;59.64
31121;BME280;17770;45.966;13.632;2023-02-02T07:30:15;101025.88;;;12.60;59.41
31121;BME280;17770;45.966;13.632;2023-02-02T07:32:45;101034.50;;;12.59;59.43
31121;BME280;17770;45.966;13.632;2023-02-02T07:35:11;101025.00;;;12.60;59.72
31121;BME280;17770;45.966;13.632;2023-02-02T07:37:37;101031.91;;;12.61;59.93
31121;BME280;17770;45.966;13.632;2023-02-02T07:40:03;101034.50;;;12.59;59.30
31121;BME280;17770;45.966;13.632;2023-02-02T07:42:29;101043.97;;;12.60;59.60
31121;BME280;17770;45.966;13.632;2023-02-02T07:44:54;101039.66;;;12.59;58.75
31121;BME280;17770;45.966;13.632;2023-02-02T07:47:20;101045.69;;;12.60;59.31
31121;BME280;17770;45.966;13.632;2023-02-02T07:49:46;101051.78;;;12.59;59.06
31121;BME280;17770;45.966;13.632;2023-02-02T07:52:12;101040.53;;;12.60;59.45
31121;BME280;17770;45.966;13.632;2023-02-02T07:54:38;101046.56;;;12.60;59.05
31121;BME280;17770;45.966;13.632;2023-02-02T07:57:04;101047.44;;;12.59;59.45
31121;BME280;17770;45.966;13.632;2023-02-02T07:59:30;101043.13;;;12.60;59.93
31121;BME280;17770;45.966;13.632;2023-02-02T08:01:56;101044.84;;;12.59;58.99
31121;BME280;17770;45.966;13.632;2023-02-02T08:04:21;101045.66;;;12.61;59.45
31121;BME280;17770;45.966;13.632;2023-02-02T08:06:47;101044.84;;;12.61;58.89
31121;BME280;17770;45.966;13.632;2023-02-02T08:09:13;101062.09;;;12.60;59.04
31121;BME280;17770;45.966;13.632;2023-02-02T08:11:39;101064.63;;;12.62;59.78
31121;BME280;17770;45.966;13.632;2023-02-02T08:14:05;101062.94;;;12.61;59.21
31121;BME280;17770;45.966;13.632;2023-02-02T08:16:31;101055.19;;;12.61;59.32
31121;BME280;17770;45.966;13.632;2023-02-02T08:18:57;101057.78;;;12.61;59.59
31121;BME280;17770;45.966;13.632;2023-02-02T08:21:23;101046.56;;;12.60;59.58
31121;BME280;17770;45.966;13.632;2023-02-02T08:23:50;101051.69;;;12.62;59.97
31121;BME280;17770;45.966;13.632;2023-02-02T08:26:17;101039.66;;;12.61;59.95
31121;BME280;17770;45.966;13.632;2023-02-02T08:28:45;101047.41;;;12.61;59.68
31121;BME280;17770;45.966;13.632;2023-02-02T08:31:16;101049.16;;;12.60;59.85
31121;BME280;17770;45.966;13.632;2023-02-02T08:33:42;101053.41;;;12.61;59.64
31121;BME280;17770;45.966;13.632;2023-02-02T08:36:10;101062.94;;;12.61;59.33
31121;BME280;17770;45.966;13.632;2023-02-02T08:38:36;101058.59;;;12.61;59.30
31121;BME280;17770;45.966;13.632;2023-02-02T08:41:05;101050.84;;;12.61;59.75
31121;BME280;17770;45.966;13.632;2023-02-02T08:43:32;101050.00;;;12.61;59.65
31121;BME280;17770;45.966;13.632;2023-02-02T08:45:58;101050.84;;;12.61;59.30
31121;BME280;17770;45.966;13.632;2023-02-02T08:48:24;101052.59;;;12.61;59.93
31121;BME280;17770;45.966;13.632;2023-02-02T08:50:53;101053.41;;;12.61;59.14
31121;BME280;17770;45.966;13.632;2023-02-02T08:53:19;101056.91;;;12.60;59.73
31121;BME280;17770;45.966;13.632;2023-02-02T08:55:45;101057.72;;;12.62;60.07
31121;BME280;17770;45.966;13.632;2023-02-02T08:58:11;101056.00;;;12.61;59.52
31121;BME280;17770;45.966;13.632;2023-02-02T09:00:37;101068.06;;;12.62;58.86
31121;BME280;17770;45.966;13.632;2023-02-02T09:03:03;101055.13;;;12.62;59.80
31121;BME280;17770;45.966;13.632;2023-02-02T09:05:29;101061.13;;;12.63;59.30
31121;BME280;17770;45.966;13.632;2023-02-02T09:07:55;101065.44;;;12.64;59.52
31121;BME280;17770;45.966;13.632;2023-02-02T09:10:21;101068.84;;;12.64;59.50
31121;BME280;17770;45.966;13.632;2023-02-02T09:12:47;101069.75;;;12.63;59.91
31121;BME280;17770;45.966;13.632;2023-02-02T09:15:13;101063.69;;;12.64;59.36
31121;BME280;17770;45.966;13.632;2023-02-02T09:17:39;101058.50;;;12.64;59.91
31121;BME280;17770;45.966;13.632;2023-02-02T09:20:05;101065.41;;;12.65;59.60
31121;BME280;17770;45.966;13.632;2023-02-02T09:22:31;101059.38;;;12.65;58.92
31121;BME280;17770;45.966;13.632;2023-02-02T09:24:57;101070.56;;;12.65;59.60
31121;BME280;17770;45.966;13.632;2023-02-02T09:27:23;101079.19;;;12.66;59.24
31121;BME280;17770;45.966;13.632;2023-02-02T09:29:49;101077.47;;;12.65;59.45
31121;BME280;17770;45.966;13.632;2023-02-02T09:32:16;101082.63;;;12.66;59.02
31121;BME280;17770;45.966;13.632;2023-02-02T09:34:42;101074.03;;;12.64;58.78
31121;BME280;17770;45.966;13.632;2023-02-02T09:37:08;101077.47;;;12.65;59.81
31121;BME280;17770;45.966;13.632;2023-02-02T09:39:34;101074.88;;;12.65;59.50
31121;BME280;17770;45.966;13.632;2023-02-02T09:48:00;101082.66;;;12.65;59.16
31121;BME280;17770;45.966;13.632;2023-02-02T09:50:36;101082.69;;;12.63;59.13
31121;BME280;17770;45.966;13.632;2023-02-02T09:53:12;101080.94;;;12.65;60.14
31121;BME280;17770;45.966;13.632;2023-02-02T09:55:42;101084.38;;;12.66;59.21
31121;BME280;17770;45.966;13.632;2023-02-02T10:00:45;101095.50;;;12.68;59.40
31121;BME280;17770;45.966;13.632;2023-02-02T10:03:14;101103.28;;;12.68;59.92
31121;BME280;17770;45.966;13.632;2023-02-02T10:05:47;101105.81;;;12.69;58.98
31121;BME280;17770;45.966;13.632;2023-02-02T10:08:37;101111.03;;;12.68;58.94
31121;BME280;17770;45.966;13.632;2023-02-02T10:11:12;101111.00;;;12.69;59.28
31121;BME280;17770;45.966;13.632;2023-02-02T10:13:41;101103.22;;;12.71;59.55
31121;BME280;17770;45.966;13.632;2023-02-02T10:16:15;101103.22;;;12.71;58.92
31121;BME280;17770;45.966;13.632;2023-02-02T10:21:10;101098.91;;;12.70;59.40
31121;BME280;17770;45.966;13.632;2023-02-02T10:23:39;101107.56;;;12.69;59.82
31121;BME280;17770;45.966;13.632;2023-02-02T10:26:21;101100.59;;;12.72;59.36
31121;BME280;17770;45.966;13.632;2023-02-02T10:31:16;101096.31;;;12.70;58.95
31121;BME280;17770;45.966;13.632;2023-02-02T10:33:43;101089.41;;;12.70;58.77
31121;BME280;17770;45.966;13.632;2023-02-02T10:41:19;101078.16;;;12.71;59.01
31121;BME280;17770;45.966;13.632;2023-02-02T10:46:21;101071.25;;;12.72;59.86
31121;BME280;17770;45.966;13.632;2023-02-02T10:48:48;101073.00;;;12.71;58.92
31121;BME280;17770;45.966;13.632;2023-02-02T10:51:50;101071.25;;;12.72;59.69
31121;BME280;17770;45.966;13.632;2023-02-02T10:54:14;101063.44;;;12.73;59.24
31121;BME280;17770;45.966;13.632;2023-02-02T10:56:44;101053.09;;;12.73;59.65
31121;BME280;17770;45.966;13.632;2023-02-02T10:59:18;101053.97;;;12.74;59.74
31121;BME280;17770;45.966;13.632;2023-02-02T11:01:46;101056.53;;;12.74;59.69
31121;BME280;17770;45.966;13.632;2023-02-02T11:04:13;101049.56;;;12.76;59.32
31121;BME280;17770;45.966;13.632;2023-02-02T11:06:57;101053.88;;;12.77;59.81
31121;BME280;17770;45.966;13.632;2023-02-02T11:09:25;101056.47;;;12.77;60.02
31121;BME280;17770;45.966;13.632;2023-02-02T11:11:58;101053.00;;;12.76;59.65
31121;BME280;17770;45.966;13.632;2023-02-02T11:14:29;101047.03;;;12.74;58.87
31121;BME280;17770;45.966;13.632;2023-02-02T11:17:04;101041.78;;;12.77;58.81
31121;BME280;17770;45.966;13.632;2023-02-02T11:19:33;101038.34;;;12.77;59.16
31121;BME280;17770;45.966;13.632;2023-02-02T11:22:01;101025.41;;;12.77;59.45
31121;BME280;17770;45.966;13.632;2023-02-02T11:24:28;101021.91;;;12.78;59.25
31121;BME280;17770;45.966;13.632;2023-02-02T11:26:55;101023.69;;;12.77;58.95
31121;BME280;17770;45.966;13.632;2023-02-02T11:31:52;101005.56;;;12.77;58.94
31121;BME280;17770;45.966;13.632;2023-02-02T11:34:20;101001.16;;;12.79;59.05
31121;BME280;17770;45.966;13.632;2023-02-02T11:37:21;101006.34;;;12.79;59.80
31121;BME280;17770;45.966;13.632;2023-02-02T11:39:40;101008.16;;;12.77;59.91
31121;BME280;17770;45.966;13.632;2023-02-02T11:42:09;100999.44;;;12.80;59.75
31121;BME280;17770;45.966;13.632;2023-02-02T11:44:37;101000.34;;;12.79;60.02
31121;BME280;17770;45.966;13.632;2023-02-02T11:47:04;100994.25;;;12.80;59.26
31121;BME280;17770;45.966;13.632;2023-02-02T11:49:37;100989.09;;;12.80;59.31
31121;BME280;17770;45.966;13.632;2023-02-02T11:52:07;100983.00;;;12.81;59.95
31121;BME280;17770;45.966;13.632;2023-02-02T11:54:39;100974.47;;;12.79;59.15
31121;BME280;17770;45.966;13.632;2023-02-02T11:57:10;100974.41;;;12.80;59.25
31121;BME280;17770;45.966;13.632;2023-02-02T11:59:41;100970.91;;;12.81;59.19
31121;BME280;17770;45.966;13.632;2023-02-02T12:04:50;100964.00;;;12.82;60.12
31121;BME280;17770;45.966;13.632;2023-02-02T12:07:24;100962.34;;;12.79;59.58
31121;BME280;17770;45.966;13.632;2023-02-02T12:09:51;100964.00;;;12.82;59.38
31121;BME280;17770;45.966;13.632;2023-02-02T12:12:39;100966.59;;;12.82;59.42
31121;BME280;17770;45.966;13.632;2023-02-02T12:17:36;100961.47;;;12.80;59.42
31121;BME280;17770;45.966;13.632;2023-02-02T12:20:15;100957.06;;;12.84;59.98
31121;BME280;17770;45.966;13.632;2023-02-02T12:30:43;100950.13;;;12.84;59.63
31121;BME280;17770;45.966;13.632;2023-02-02T12:43:47;100939.72;;;12.86;60.05
31121;BME280;17770;45.966;13.632;2023-02-02T12:49:16;100948.34;;;12.86;59.96
31121;BME280;17770;45.966;13.632;2023-02-02T12:54:35;100942.25;;;12.87;60.01
31121;BME280;17770;45.966;13.632;2023-02-02T13:02:09;100951.69;;;12.90;60.01
31121;BME280;17770;45.966;13.632;2023-02-02T13:10:01;100942.25;;;12.89;60.74
31121;BME280;17770;45.966;13.632;2023-02-02T13:12:31;100943.88;;;12.91;60.36
31121;BME280;17770;45.966;13.632;2023-02-02T13:15:06;100932.66;;;12.91;60.83
31121;BME280;17770;45.966;13.632;2023-02-02T13:17:47;100936.06;;;12.93;60.74
31121;BME280;17770;45.966;13.632;2023-02-02T13:22:46;100934.38;;;12.92;60.74
31121;BME280;17770;45.966;13.632;2023-02-02T13:25:17;100941.25;;;12.93;61.12
31121;BME280;17770;45.966;13.632;2023-02-02T13:27:44;100938.69;;;12.91;60.06
31121;BME280;17770;45.966;13.632;2023-02-02T13:30:12;100938.56;;;12.96;60.40
31121;BME280;17770;45.966;13.632;2023-02-02T13:32:42;100934.28;;;12.95;60.87
31121;BME280;17770;45.966;13.632;2023-02-02T13:35:17;100935.97;;;12.96;61.42
31121;BME280;17770;45.966;13.632;2023-02-02T13:37:48;100941.09;;;12.97;61.10
31121;BME280;17770;45.966;13.632;2023-02-02T13:40:35;100929.06;;;12.96;60.27
31121;BME280;17770;45.966;13.632;2023-02-02T13:43:24;100928.16;;;12.97;60.39
31121;BME280;17770;45.966;13.632;2023-02-02T13:49:04;100938.44;;;13.02;60.91
31121;BME280;17770;45.966;13.632;2023-02-02T13:53:56;100940.97;;;13.03;61.13
31121;BME280;17770;45.966;13.632;2023-02-02T14:01:55;100934.94;;;13.03;60.21
31121;BME280;17770;45.966;13.632;2023-02-02T14:04:23;100943.41;;;13.08;61.32
31121;BME280;17770;45.966;13.632;2023-02-02T14:07:01;100945.13;;;13.07;61.50
31121;BME280;17770;45.966;13.632;2023-02-02T14:09:30;100939.03;;;13.10;60.83
31121;BME280;17770;45.966;13.632;2023-02-02T14:11:58;100939.88;;;13.11;61.17
31121;BME280;17770;45.966;13.632;2023-02-02T14:14:25;100946.75;;;13.12;61.25
31121;BME280;17770;45.966;13.632;2023-02-02T14:16:58;100945.84;;;13.13;60.78
31121;BME280;17770;45.966;13.632;2023-02-02T14:27:00;100963.88;;;13.16;61.24
31121;BME280;17770;45.966;13.632;2023-02-02T14:37:13;100951.72;;;13.18;60.69
31121;BME280;17770;45.966;13.632;2023-02-02T14:40:29;100958.63;;;13.19;60.78
31121;BME280;17770;45.966;13.632;2023-02-02T14:45:22;100962.03;;;13.19;61.45
31121;BME280;17770;45.966;13.632;2023-02-02T14:47:51;100956.91;;;13.18;61.29
31121;BME280;17770;45.966;13.632;2023-02-02T14:51:03;100952.53;;;13.20;61.64